CST,Max TemperatureF,Mean TemperatureF,Min TemperatureF,Max Dew PointF,MeanDew PointF,Min DewpointF,Max Humidity, Mean Humidity, Min Humidity, Max Sea Level PressureIn, Mean Sea Level PressureIn, Min Sea Level PressureIn, Max VisibilityMiles, Mean VisibilityMiles, Min VisibilityMiles, Max Wind SpeedMPH, Mean Wind SpeedMPH, Max Gust SpeedMPH,PrecipitationIn, CloudCover, Events, WindDirDegrees
2013-11-1,55,45,35,41,39,36,100,83,51,29.90,29.72,29.50,10,10,7,26,15,34,0.00,4,,300
2013-11-2,53,43,33,39,35,30,100,76,47,30.11,30.04,29.91,10,10,5,17,12,21,0.00,2,,288
2013-11-3,55,44,33,37,33,28,93,65,36,30.05,29.89,29.74,10,10,10,34,17,47,0.00,0,,162
2013-11-4,51,45,37,45,37,30,93,71,50,30.14,29.93,29.78,10,10,9,20,12,28,0.00,3,Rain,257
2013-11-5,39,36,32,36,33,28,100,92,75,30.16,30.03,29.88,10,6,2,29,12,37,0.60,6,Rain,37
2013-11-6,41,34,26,32,28,25,100,85,53,30.20,30.13,29.98,10,10,3,24,15,32,0.00,2,Snow,296
2013-11-7,41,32,24,32,26,21,100,81,45,30.31,30.25,30.19,10,9,6,20,11,22,0.00,0,,271
2013-11-8,55,40,26,39,31,21,86,64,41,30.21,29.89,29.67,10,10,10,36,14,45,0.00,1,,200
2013-11-9,51,40,30,36,33,25,87,72,54,30.31,30.05,29.79,10,10,10,26,17,34,0.00,0,,289
2013-11-10,48,34,21,30,26,19,93,73,40,30.38,30.25,30.07,10,10,10,16,8,,0.00,3,,227
2013-11-11,41,26,10,34,18,5,93,77,65,30.71,30.40,30.07,10,9,0,28,15,34,0.00,2,Rain-Snow,356
2013-11-12,28,16,3,10,7,0,85,68,43,30.79,30.68,30.46,10,10,10,16,10,21,0.00,0,,260
2013-11-13,51,37,23,28,21,10,70,55,38,30.46,30.15,29.92,10,10,10,33,18,37,0.00,0,,210
2013-11-14,53,42,32,39,32,25,93,72,54,29.92,29.87,29.84,10,10,10,16,11,20,0.00,1,,246
2013-11-15,55,42,30,39,34,28,100,78,47,29.85,29.75,29.58,10,10,5,18,10,25,0.00,0,,190
2013-11-16,62,50,37,54,42,27,100,81,49,29.58,29.38,29.22,10,8,3,30,14,38,0.00,3,,195
2013-11-17,50,42,35,43,35,25,100,78,46,29.94,29.58,29.33,10,9,3,26,10,34,0.03,3,Rain,293
2013-11-18,44,35,26,32,29,25,100,82,53,30.20,30.13,29.95,10,10,4,22,12,24,0.00,0,,282
2013-11-19,57,42,28,34,30,27,100,66,36,30.18,29.98,29.84,10,10,9,33,17,41,0.00,1,,160
2013-11-20,50,41,32,34,31,27,100,66,46,29.96,29.84,29.78,10,10,5,26,19,33,0.00,4,,162
2013-11-21,32,24,17,32,21,14,100,86,69,30.50,30.24,29.96,10,6,0,26,14,34,0.00,8,Snow,357
2013-11-22,26,16,6,14,8,1,86,69,47,30.61,30.54,30.50,10,10,2,22,14,29,0.00,1,Snow,305
2013-11-23,17,11,5,12,0,-4,79,62,42,30.81,30.73,30.60,10,10,10,25,13,32,0.00,0,,349
2013-11-24,30,18,5,16,8,-4,79,66,51,30.67,30.37,30.08,10,10,9,28,14,32,0.00,0,,199
2013-11-25,42,33,24,28,21,16,80,67,49,30.13,30.06,30.00,10,10,10,26,17,34,0.00,3,Rain,276
2013-11-26,28,20,12,23,10,3,93,62,40,30.36,30.25,30.12,10,10,10,26,15,40,0.00,3,,329
2013-11-27,28,16,3,14,7,0,85,66,43,30.35,30.17,29.94,10,10,3,22,11,29,0.00,0,,215
2013-11-28,30,22,14,16,13,7,86,69,55,30.45,30.26,29.95,10,10,10,22,13,26,0.00,1,,348
2013-11-29,37,24,10,27,16,5,86,73,52,30.45,30.29,30.07,10,10,10,22,11,28,0.00,0,,160
2013-11-30,50,38,26,30,26,23,86,68,43,30.13,30.06,30.02,10,10,4,18,13,16,0.00,0,,286